createdAt,value
2023-02-09T00:01:49.070Z,98428.44
2023-02-09T00:06:52.452Z,98428.16
2023-02-09T00:11:56.316Z,98418.94
2023-02-09T00:17:02.065Z,98424.81
2023-02-09T00:22:05.301Z,98421.72
2023-02-09T00:27:08.525Z,98418.47
2023-02-09T00:32:11.729Z,98418.28
2023-02-09T00:37:16.267Z,98417.81
2023-02-09T00:42:21.987Z,98405.72
2023-02-09T00:47:25.968Z,98407.94
2023-02-09T00:52:29.021Z,98408.09
2023-02-09T00:57:32.118Z,98418.38
2023-02-09T01:02:35.723Z,98414.56
2023-02-09T01:07:38.850Z,98412.19
2023-02-09T01:12:42.736Z,98408.34
2023-02-09T01:17:46.038Z,98413.78
2023-02-09T01:22:49.148Z,98414.59
2023-02-09T01:27:52.257Z,98415.38
2023-02-09T01:32:55.411Z,98415.03
2023-02-09T01:37:58.504Z,98406.91
2023-02-09T01:43:01.757Z,98393.25
2023-02-09T01:48:05.124Z,98402.53
2023-02-09T01:53:08.825Z,98409.16
2023-02-09T01:58:15.664Z,98397.53
2023-02-09T02:03:25.389Z,98400.84
2023-02-09T02:08:37.295Z,98390.84
2023-02-09T02:13:40.440Z,98399.84
2023-02-09T02:19:12.469Z,98407.47
2023-02-09T02:25:03.346Z,98398.94
2023-02-09T02:30:24.878Z,98408.44
2023-02-09T02:35:44.532Z,98407.59
2023-02-09T02:41:06.056Z,98413.75
2023-02-09T02:46:36.015Z,98416.41
2023-02-09T02:51:49.539Z,98411.91
2023-02-09T02:56:59.486Z,98416.22
2023-02-09T03:02:08.740Z,98418.88
2023-02-09T03:07:11.877Z,98422.66
2023-02-09T03:12:38.710Z,98423.31
2023-02-09T03:17:47.384Z,98430.44
2023-02-09T03:22:57.579Z,98438.59
2023-02-09T03:28:09.608Z,98433.63
2023-02-09T03:33:25.133Z,98448.09
2023-02-09T03:38:28.644Z,98446.47
2023-02-09T03:43:31.852Z,98447.75
2023-02-09T03:48:34.915Z,98453.06
2023-02-09T03:53:38.140Z,98459.56
2023-02-09T03:58:41.236Z,98459.56
2023-02-09T04:03:44.269Z,98460.38
2023-02-09T04:08:49.137Z,98467.22
2023-02-09T04:13:52.516Z,98468.66
2023-02-09T04:18:55.644Z,98478.94
2023-02-09T04:23:58.778Z,98474.47
2023-02-09T04:29:02.532Z,98478.81
2023-02-09T04:34:05.362Z,98479.34
2023-02-09T04:39:08.566Z,98492.16
2023-02-09T04:44:16.262Z,98502.78
2023-02-09T04:49:19.494Z,98491.31
2023-02-09T04:54:22.520Z,98510.06
2023-02-09T04:59:25.677Z,98510.56
2023-02-09T05:04:28.935Z,98523.16
2023-02-09T05:09:32.119Z,98519.81
2023-02-09T05:14:35.168Z,98527.59
2023-02-09T05:19:38.250Z,98532.75
2023-02-09T05:24:41.341Z,98551.31
2023-02-09T05:29:44.665Z,98556.75
2023-02-09T05:34:48.334Z,98555.22
2023-02-09T05:39:51.652Z,98561.50
2023-02-09T05:44:54.762Z,98572.44
2023-02-09T05:49:57.847Z,98565.44
2023-02-09T05:55:01.025Z,98576.72
2023-02-09T06:00:06.906Z,98579.16
2023-02-09T06:05:14.834Z,98580.38
2023-02-09T06:10:19.077Z,98575.31
2023-02-09T06:15:24.864Z,98585.81
2023-02-09T06:20:28.007Z,98596.69
2023-02-09T06:25:31.863Z,98598.41
2023-02-09T06:30:35.110Z,98602.03
2023-02-09T06:35:38.294Z,98600.94
2023-02-09T06:40:41.490Z,98602.06
2023-02-09T06:45:44.690Z,98597.06
2023-02-09T06:50:47.956Z,98600.75
2023-02-09T06:55:51.778Z,98602.56
2023-02-09T07:00:54.942Z,98598.63
2023-02-09T07:06:06.855Z,98599.19
2023-02-09T07:11:13.838Z,98605.38
2023-02-09T07:16:17.062Z,98604.28
2023-02-09T07:21:20.214Z,98612.72
2023-02-09T07:26:23.243Z,98609.78
2023-02-09T07:31:26.472Z,98606.56
2023-02-09T07:36:29.459Z,98608.69
2023-02-09T07:41:33.757Z,98614.47
2023-02-09T07:46:36.874Z,98610.69
2023-02-09T07:51:40.097Z,98611.25
2023-02-09T07:56:43.320Z,98621.53
2023-02-09T08:01:46.438Z,98616.75
2023-02-09T08:06:50.191Z,98607.81
2023-02-09T08:12:04.130Z,98612.16
2023-02-09T08:17:11.872Z,98610.41
2023-02-09T08:22:15.096Z,98613.16
2023-02-09T08:27:18.289Z,98609.03
2023-02-09T08:32:21.781Z,98607.00
2023-02-09T08:37:25.036Z,98606.81
2023-02-09T08:42:28.684Z,98613.16
2023-02-09T08:47:32.242Z,98613.88
2023-02-09T08:52:35.498Z,98612.38
2023-02-09T08:57:44.485Z,98611.50
2023-02-09T09:02:47.768Z,98602.47
2023-02-09T09:07:50.911Z,98585.50
2023-02-09T09:12:54.023Z,98582.25
2023-02-09T09:17:57.250Z,98579.50
2023-02-09T09:23:00.410Z,98572.56
2023-02-09T09:28:03.548Z,98559.88
2023-02-09T09:33:06.947Z,98564.09
2023-02-09T09:38:09.872Z,98560.69
2023-02-09T09:43:33.277Z,98563.00
2023-02-09T09:48:50.646Z,98543.44
2023-02-09T09:53:55.880Z,98541.03
2023-02-09T09:59:01.346Z,98533.09
2023-02-09T10:04:13.517Z,98511.22
2023-02-09T10:09:39.046Z,98507.28
2023-02-09T10:14:42.767Z,98495.66
2023-02-09T10:20:00.885Z,98495.28
2023-02-09T10:25:53.351Z,98494.09
2023-02-09T10:31:00.465Z,98489.13
2023-02-09T10:36:04.066Z,98485.44
2023-02-09T10:41:10.617Z,98488.94
2023-02-09T10:46:19.543Z,98488.50
2023-02-09T10:51:24.860Z,98488.03
2023-02-09T10:56:35.552Z,98480.56
2023-02-09T11:01:44.216Z,98486.47
2023-02-09T11:06:56.502Z,98477.31
2023-02-09T11:12:00.501Z,98478.91
2023-02-09T11:17:33.249Z,98471.22
2023-02-09T11:22:36.077Z,98478.34
2023-02-09T11:27:57.627Z,98470.66
2023-02-09T11:33:26.945Z,98476.69
2023-02-09T11:38:44.579Z,98479.53
2023-02-09T11:43:51.673Z,98476.22
2023-02-09T11:49:06.900Z,98472.38
2023-02-09T11:54:16.182Z,98471.41
2023-02-09T11:59:43.690Z,98471.59
2023-02-09T12:04:55.279Z,98475.88
2023-02-09T12:10:20.365Z,98480.34
2023-02-09T12:15:37.539Z,98482.75
2023-02-09T12:20:40.545Z,98483.84
2023-02-09T12:25:55.222Z,98486.13
2023-02-09T12:31:00.325Z,98483.06
2023-02-09T12:36:05.704Z,98489.66
2023-02-09T12:41:09.871Z,98487.47
2023-02-09T12:46:14.728Z,98477.25
2023-02-09T12:51:45.966Z,98479.31
2023-02-09T12:56:49.150Z,98480.84
2023-02-09T13:02:07.626Z,98484.34
2023-02-09T13:07:41.915Z,98479.41
2023-02-09T13:13:14.814Z,98471.81
2023-02-09T13:18:44.106Z,98460.44
2023-02-09T13:23:55.364Z,98455.69
2023-02-09T13:29:22.532Z,98454.16
2023-02-09T13:34:50.469Z,98442.66
2023-02-09T13:40:02.355Z,98452.78
2023-02-09T13:45:17.693Z,98452.78
2023-02-09T13:50:26.263Z,98444.72
2023-02-09T13:55:30.084Z,98446.75
2023-02-09T14:00:54.700Z,98456.19
2023-02-09T14:06:11.287Z,98442.56
2023-02-09T14:11:41.138Z,98445.41
2023-02-09T14:16:53.580Z,98445.50
2023-02-09T14:21:57.618Z,98435.13
2023-02-09T14:27:03.100Z,98437.91
2023-02-09T14:32:32.174Z,98444.19
2023-02-09T14:37:37.306Z,98432.22
2023-02-09T14:43:06.976Z,98438.94
2023-02-09T14:48:21.717Z,98460.44
2023-02-09T14:53:28.273Z,98472.72
2023-02-09T14:58:33.006Z,98488.06
2023-02-09T15:03:36.211Z,98486.63
2023-02-09T15:08:39.760Z,98483.69
2023-02-09T15:13:42.900Z,98479.66
2023-02-09T15:18:46.026Z,98489.63
2023-02-09T15:23:49.118Z,98475.38
2023-02-09T15:28:53.501Z,98467.69
2023-02-09T15:33:56.619Z,98476.63
2023-02-09T15:38:59.970Z,98480.41
2023-02-09T15:44:15.904Z,98484.00
2023-02-09T15:49:19.081Z,98479.44
2023-02-09T15:54:30.187Z,98499.19
2023-02-09T15:59:33.346Z,98494.97
2023-02-09T16:04:36.499Z,98511.03
2023-02-09T16:09:42.311Z,98517.75
2023-02-09T16:14:45.535Z,98525.28
2023-02-09T16:19:48.599Z,98543.09
2023-02-09T16:24:52.142Z,98532.09
2023-02-09T16:29:57.108Z,98540.72
2023-02-09T16:35:14.590Z,98537.56
2023-02-09T16:40:22.692Z,98533.63
2023-02-09T16:45:29.246Z,98544.66
2023-02-09T16:50:35.376Z,98561.47
2023-02-09T16:55:38.776Z,98553.75
2023-02-09T17:00:45.344Z,98554.88
2023-02-09T17:05:58.189Z,98547.16
2023-02-09T17:11:03.120Z,98567.28
2023-02-09T17:16:07.353Z,98563.59
2023-02-09T17:21:21.340Z,98562.22
2023-02-09T17:26:24.907Z,98563.88
2023-02-09T17:31:38.220Z,98563.25
2023-02-09T17:36:47.192Z,98561.41
2023-02-09T17:41:50.450Z,98543.56
2023-02-09T17:46:54.670Z,98552.41
2023-02-09T17:51:57.851Z,98550.09
2023-02-09T17:57:01.136Z,98536.78
2023-02-09T18:02:11.098Z,98526.47
2023-02-09T18:07:14.294Z,98498.72
2023-02-09T18:12:19.510Z,98511.03
2023-02-09T18:17:22.944Z,98520.69
2023-02-09T18:22:26.143Z,98509.03
2023-02-09T18:27:29.296Z,98521.34
2023-02-09T18:32:32.407Z,98534.13
2023-02-09T18:37:35.703Z,98523.91
2023-02-09T18:42:38.709Z,98487.41
2023-02-09T18:47:41.999Z,98485.31
2023-02-09T18:52:49.412Z,98478.16
2023-02-09T18:57:53.044Z,98460.69
2023-02-09T19:02:57.303Z,98452.25
2023-02-09T19:08:00.985Z,98447.94
2023-02-09T19:13:04.797Z,98453.59
2023-02-09T19:18:07.813Z,98442.31
2023-02-09T19:23:10.957Z,98422.19
2023-02-09T19:28:14.218Z,98406.19
2023-02-09T19:33:17.259Z,98385.06
2023-02-09T19:38:20.373Z,98384.59
2023-02-09T19:43:23.814Z,98377.00
2023-02-09T19:48:27.801Z,98379.84
2023-02-09T19:53:30.995Z,98382.31
2023-02-09T19:58:37.301Z,98384.09
2023-02-09T20:03:40.743Z,98366.88
2023-02-09T20:08:44.035Z,98364.22
2023-02-09T20:13:53.294Z,98366.88
2023-02-09T20:18:56.837Z,98357.53
2023-02-09T20:24:00.360Z,98357.59
2023-02-09T20:29:04.726Z,98361.38
2023-02-09T20:34:11.796Z,98365.13
2023-02-09T20:39:16.346Z,98371.72
2023-02-09T20:44:19.558Z,98372.81
2023-02-09T20:49:32.465Z,98380.66
2023-02-09T20:54:36.199Z,98382.28
2023-02-09T20:59:39.617Z,98385.31
2023-02-09T21:04:42.461Z,98379.16
2023-02-09T21:09:45.560Z,98375.03
2023-02-09T21:14:48.893Z,98388.16
2023-02-09T21:19:52.038Z,98380.81
2023-02-09T21:24:55.500Z,98391.09
2023-02-09T21:29:59.607Z,98388.25
2023-02-09T21:35:02.767Z,98383.75
2023-02-09T21:40:07.108Z,98393.56
2023-02-09T21:45:10.599Z,98382.28
2023-02-09T21:50:14.070Z,98396.88
2023-02-09T21:55:17.329Z,98382.72
2023-02-09T22:00:20.625Z,98390.34
2023-02-09T22:05:24.376Z,98389.34
2023-02-09T22:10:27.424Z,98386.69
2023-02-09T22:15:30.370Z,98385.22
2023-02-09T22:20:33.595Z,98381.91
2023-02-09T22:25:37.198Z,98374.91
2023-02-09T22:30:41.801Z,98388.44
2023-02-09T22:35:45.096Z,98387.63
2023-02-09T22:40:48.156Z,98388.81
2023-02-09T22:46:00.415Z,98391.31
2023-02-09T22:51:03.633Z,98385.31
2023-02-09T22:56:06.802Z,98379.44
2023-02-09T23:01:11.004Z,98387.22
2023-02-09T23:06:19.992Z,98363.25
2023-02-09T23:11:23.912Z,98366.56
2023-02-09T23:16:29.017Z,98363.69
2023-02-09T23:21:35.007Z,98368.00
2023-02-09T23:26:38.911Z,98363.69
2023-02-09T23:31:43.584Z,98364.25
2023-02-09T23:36:47.276Z,98345.41
2023-02-09T23:41:50.553Z,98351.31
2023-02-09T23:46:53.747Z,98366.09
2023-02-09T23:51:56.929Z,98364.81
2023-02-09T23:57:00.418Z,98357.41
